sensor_id;sensor_type;location;lat;lon;timestamp;pressure;altitude;pressure_sealevel;temperature;humidity
32324;BME280;25666;44.350;9.222;2024-03-08T00:00:11;101693.56;;;6.67;100.00
32324;BME280;25666;44.350;9.222;2024-03-08T00:02:40;101694.84;;;6.56;100.00
32324;BME280;25666;44.350;9.222;2024-03-08T00:05:07;101695.44;;;6.53;100.00
32324;BME280;25666;44.350;9.222;2024-03-08T00:07:43;101687.84;;;6.44;100.00
32324;BME280;25666;44.350;9.222;2024-03-08T00:10:10;101691.41;;;6.45;100.00
32324;BME280;25666;44.350;9.222;2024-03-08T00:12:43;101688.56;;;6.50;100.00
32324;BME280;25666;44.350;9.222;2024-03-08T00:15:10;101692.41;;;6.35;100.00
32324;BME280;25666;44.350;9.222;2024-03-08T00:17:43;101687.66;;;6.36;100.00
32324;BME280;25666;44.350;9.222;2024-03-08T00:20:09;101688.66;;;6.45;100.00
32324;BME280;25666;44.350;9.222;2024-03-08T00:22:38;101684.91;;;6.36;100.00
32324;BME280;25666;44.350;9.222;2024-03-08T00:25:05;101682.59;;;6.43;100.00
32324;BME280;25666;44.350;9.222;2024-03-08T00:27:34;101677.06;;;6.43;100.00
32324;BME280;25666;44.350;9.222;2024-03-08T00:29:59;101681.47;;;6.44;100.00
32324;BME280;25666;44.350;9.222;2024-03-08T00:32:25;101679.81;;;6.43;100.00
32324;BME280;25666;44.350;9.222;2024-03-08T00:34:56;101677.59;;;6.45;100.00
32324;BME280;25666;44.350;9.222;2024-03-08T00:37:21;101682.91;;;6.41;100.00
32324;BME280;25666;44.350;9.222;2024-03-08T00:39:48;101674.16;;;6.34;100.00
32324;BME280;25666;44.350;9.222;2024-03-08T00:42:15;101673.63;;;6.32;100.00
32324;BME280;25666;44.350;9.222;2024-03-08T00:44:40;101672.81;;;6.51;100.00
32324;BME280;25666;44.350;9.222;2024-03-08T00:47:06;101678.72;;;6.44;100.00
32324;BME280;25666;44.350;9.222;2024-03-08T00:49:31;101670.03;;;6.51;100.00
32324;BME280;25666;44.350;9.222;2024-03-08T00:51:57;101678.00;;;6.52;100.00
32324;BME280;25666;44.350;9.222;2024-03-08T00:54:23;101678.84;;;6.53;100.00
32324;BME280;25666;44.350;9.222;2024-03-08T00:56:48;101674.59;;;6.41;100.00
32324;BME280;25666;44.350;9.222;2024-03-08T00:59:14;101668.16;;;6.46;100.00
32324;BME280;25666;44.350;9.222;2024-03-08T01:01:40;101670.50;;;6.39;100.00
32324;BME280;25666;44.350;9.222;2024-03-08T01:04:06;101674.38;;;6.38;100.00
32324;BME280;25666;44.350;9.222;2024-03-08T01:06:33;101661.75;;;6.32;100.00
32324;BME280;25666;44.350;9.222;2024-03-08T01:08:59;101670.94;;;6.27;100.00
32324;BME280;25666;44.350;9.222;2024-03-08T01:11:24;101673.19;;;6.25;100.00
32324;BME280;25666;44.350;9.222;2024-03-08T01:13:50;101657.06;;;6.14;100.00
32324;BME280;25666;44.350;9.222;2024-03-08T01:16:16;101666.31;;;6.23;100.00
32324;BME280;25666;44.350;9.222;2024-03-08T01:18:43;101662.78;;;6.36;100.00
32324;BME280;25666;44.350;9.222;2024-03-08T01:21:08;101660.22;;;6.39;100.00
32324;BME280;25666;44.350;9.222;2024-03-08T01:23:34;101663.53;;;6.41;100.00
32324;BME280;25666;44.350;9.222;2024-03-08T01:26:00;101660.09;;;6.31;100.00
32324;BME280;25666;44.350;9.222;2024-03-08T01:28:27;101662.72;;;6.22;100.00
32324;BME280;25666;44.350;9.222;2024-03-08T01:30:53;101649.88;;;6.31;100.00
32324;BME280;25666;44.350;9.222;2024-03-08T01:33:26;101643.16;;;6.19;100.00
32324;BME280;25666;44.350;9.222;2024-03-08T01:35:52;101640.84;;;6.26;100.00
32324;BME280;25666;44.350;9.222;2024-03-08T01:38:19;101640.91;;;6.21;100.00
32324;BME280;25666;44.350;9.222;2024-03-08T01:40:44;101638.34;;;6.24;100.00
32324;BME280;25666;44.350;9.222;2024-03-08T01:43:19;101642.78;;;6.25;100.00
32324;BME280;25666;44.350;9.222;2024-03-08T01:45:45;101640.25;;;6.29;100.00
32324;BME280;25666;44.350;9.222;2024-03-08T01:48:11;101639.09;;;6.30;100.00
32324;BME280;25666;44.350;9.222;2024-03-08T01:50:38;101640.59;;;6.22;100.00
32324;BME280;25666;44.350;9.222;2024-03-08T01:53:05;101632.81;;;6.24;100.00
32324;BME280;25666;44.350;9.222;2024-03-08T01:55:32;101638.13;;;6.21;100.00
32324;BME280;25666;44.350;9.222;2024-03-08T01:57:58;101636.94;;;6.08;100.00
32324;BME280;25666;44.350;9.222;2024-03-08T02:00:25;101633.19;;;6.18;100.00
32324;BME280;25666;44.350;9.222;2024-03-08T02:02:53;101631.94;;;6.10;100.00
32324;BME280;25666;44.350;9.222;2024-03-08T02:05:20;101626.34;;;6.15;100.00
32324;BME280;25666;44.350;9.222;2024-03-08T02:07:46;101616.47;;;6.09;100.00
32324;BME280;25666;44.350;9.222;2024-03-08T02:10:12;101615.00;;;6.17;100.00
32324;BME280;25666;44.350;9.222;2024-03-08T02:12:38;101612.44;;;6.20;100.00
32324;BME280;25666;44.350;9.222;2024-03-08T02:15:04;101603.16;;;6.30;100.00
32324;BME280;25666;44.350;9.222;2024-03-08T02:17:32;101606.16;;;6.15;100.00
32324;BME280;25666;44.350;9.222;2024-03-08T02:19:59;101601.19;;;5.98;100.00
32324;BME280;25666;44.350;9.222;2024-03-08T02:22:28;101607.31;;;5.95;100.00
32324;BME280;25666;44.350;9.222;2024-03-08T02:24:55;101613.94;;;5.94;100.00
32324;BME280;25666;44.350;9.222;2024-03-08T02:27:24;101603.72;;;5.95;100.00
32324;BME280;25666;44.350;9.222;2024-03-08T02:29:56;101612.06;;;5.89;100.00
32324;BME280;25666;44.350;9.222;2024-03-08T02:32:23;101610.50;;;6.02;100.00
32324;BME280;25666;44.350;9.222;2024-03-08T02:34:48;101599.81;;;6.14;100.00
32324;BME280;25666;44.350;9.222;2024-03-08T02:37:15;101603.16;;;6.11;100.00
32324;BME280;25666;44.350;9.222;2024-03-08T02:39:40;101605.06;;;5.97;100.00
32324;BME280;25666;44.350;9.222;2024-03-08T02:42:06;101599.75;;;6.01;100.00
32324;BME280;25666;44.350;9.222;2024-03-08T02:44:32;101602.75;;;6.04;100.00
32324;BME280;25666;44.350;9.222;2024-03-08T02:46:59;101598.34;;;6.03;100.00
32324;BME280;25666;44.350;9.222;2024-03-08T02:49:25;101600.19;;;6.08;100.00
32324;BME280;25666;44.350;9.222;2024-03-08T02:51:52;101596.03;;;6.10;100.00
32324;BME280;25666;44.350;9.222;2024-03-08T02:54:19;101603.25;;;6.06;100.00
32324;BME280;25666;44.350;9.222;2024-03-08T02:56:45;101603.13;;;5.98;100.00
32324;BME280;25666;44.350;9.222;2024-03-08T02:59:12;101601.97;;;5.99;100.00
32324;BME280;25666;44.350;9.222;2024-03-08T03:01:38;101594.47;;;6.04;100.00
32324;BME280;25666;44.350;9.222;2024-03-08T03:04:04;101592.88;;;5.98;100.00
32324;BME280;25666;44.350;9.222;2024-03-08T03:06:29;101591.47;;;6.01;100.00
32324;BME280;25666;44.350;9.222;2024-03-08T03:08:55;101586.31;;;5.94;100.00
32324;BME280;25666;44.350;9.222;2024-03-08T03:11:23;101586.09;;;5.90;100.00
32324;BME280;25666;44.350;9.222;2024-03-08T03:13:51;101582.22;;;5.91;100.00
32324;BME280;25666;44.350;9.222;2024-03-08T03:16:18;101587.41;;;5.93;100.00
32324;BME280;25666;44.350;9.222;2024-03-08T03:18:45;101578.91;;;5.89;100.00
32324;BME280;25666;44.350;9.222;2024-03-08T03:21:11;101574.53;;;5.88;100.00
32324;BME280;25666;44.350;9.222;2024-03-08T03:23:39;101582.53;;;5.85;100.00
32324;BME280;25666;44.350;9.222;2024-03-08T03:26:05;101575.97;;;5.81;100.00
32324;BME280;25666;44.350;9.222;2024-03-08T03:28:37;101582.53;;;5.85;100.00
32324;BME280;25666;44.350;9.222;2024-03-08T03:31:10;101586.97;;;5.86;100.00
32324;BME280;25666;44.350;9.222;2024-03-08T03:33:39;101581.63;;;5.95;100.00
32324;BME280;25666;44.350;9.222;2024-03-08T03:36:05;101576.31;;;5.98;100.00
32324;BME280;25666;44.350;9.222;2024-03-08T03:38:31;101581.06;;;5.92;100.00
32324;BME280;25666;44.350;9.222;2024-03-08T03:40:57;101576.59;;;5.97;100.00
32324;BME280;25666;44.350;9.222;2024-03-08T03:43:29;101575.03;;;5.90;100.00
32324;BME280;25666;44.350;9.222;2024-03-08T03:45:55;101574.53;;;5.88;100.00
32324;BME280;25666;44.350;9.222;2024-03-08T03:48:21;101573.97;;;5.86;100.00
32324;BME280;25666;44.350;9.222;2024-03-08T03:50:46;101576.47;;;5.83;100.00
32324;BME280;25666;44.350;9.222;2024-03-08T03:53:12;101570.94;;;5.83;100.00
32324;BME280;25666;44.350;9.222;2024-03-08T03:55:38;101569.28;;;5.87;100.00
32324;BME280;25666;44.350;9.222;2024-03-08T03:58:04;101575.72;;;6.01;100.00
32324;BME280;25666;44.350;9.222;2024-03-08T04:00:29;101574.66;;;5.97;100.00
32324;BME280;25666;44.350;9.222;2024-03-08T04:02:55;101580.44;;;5.77;100.00
32324;BME280;25666;44.350;9.222;2024-03-08T04:05:24;101586.56;;;5.74;100.00
32324;BME280;25666;44.350;9.222;2024-03-08T04:07:49;101581.81;;;5.79;100.00
32324;BME280;25666;44.350;9.222;2024-03-08T04:10:15;101585.22;;;5.71;100.00
32324;BME280;25666;44.350;9.222;2024-03-08T04:12:40;101577.38;;;5.78;100.00
32324;BME280;25666;44.350;9.222;2024-03-08T04:15:06;101575.91;;;5.86;100.00
32324;BME280;25666;44.350;9.222;2024-03-08T04:17:33;101571.88;;;5.78;100.00
32324;BME280;25666;44.350;9.222;2024-03-08T04:20:03;101566.34;;;5.78;100.00
32324;BME280;25666;44.350;9.222;2024-03-08T04:22:35;101576.09;;;5.71;100.00
32324;BME280;25666;44.350;9.222;2024-03-08T04:25:01;101567.09;;;5.84;100.00
32324;BME280;25666;44.350;9.222;2024-03-08T04:27:27;101571.50;;;5.85;100.00
32324;BME280;25666;44.350;9.222;2024-03-08T04:29:53;101570.75;;;5.79;100.00
32324;BME280;25666;44.350;9.222;2024-03-08T04:32:18;101557.13;;;5.83;100.00
32324;BME280;25666;44.350;9.222;2024-03-08T04:34:44;101563.97;;;5.90;100.00
32324;BME280;25666;44.350;9.222;2024-03-08T04:37:09;101562.88;;;5.91;100.00
32324;BME280;25666;44.350;9.222;2024-03-08T04:39:38;101567.56;;;5.91;100.00
32324;BME280;25666;44.350;9.222;2024-03-08T04:42:04;101568.72;;;5.85;100.00
32324;BME280;25666;44.350;9.222;2024-03-08T04:44:36;101564.19;;;5.75;100.00
32324;BME280;25666;44.350;9.222;2024-03-08T04:47:03;101565.59;;;5.73;100.00
32324;BME280;25666;44.350;9.222;2024-03-08T04:49:29;101568.38;;;5.73;100.00
32324;BME280;25666;44.350;9.222;2024-03-08T04:51:55;101563.81;;;5.63;100.00
32324;BME280;25666;44.350;9.222;2024-03-08T04:54:20;101570.16;;;5.64;100.00
32324;BME280;25666;44.350;9.222;2024-03-08T04:56:46;101565.75;;;5.81;100.00
32324;BME280;25666;44.350;9.222;2024-03-08T04:59:11;101568.72;;;5.85;100.00
32324;BME280;25666;44.350;9.222;2024-03-08T05:01:37;101569.59;;;5.85;100.00
32324;BME280;25666;44.350;9.222;2024-03-08T05:04:03;101571.63;;;5.75;100.00
32324;BME280;25666;44.350;9.222;2024-03-08T05:06:29;101565.28;;;5.74;100.00
32324;BME280;25666;44.350;9.222;2024-03-08T05:08:55;101563.25;;;5.80;100.00
32324;BME280;25666;44.350;9.222;2024-03-08T05:11:21;101565.00;;;5.76;100.00
32324;BME280;25666;44.350;9.222;2024-03-08T05:13:46;101572.84;;;5.69;100.00
32324;BME280;25666;44.350;9.222;2024-03-08T05:16:12;101567.44;;;5.77;100.00
32324;BME280;25666;44.350;9.222;2024-03-08T05:18:40;101574.63;;;5.60;100.00
32324;BME280;25666;44.350;9.222;2024-03-08T05:21:07;101564.31;;;5.65;100.00
32324;BME280;25666;44.350;9.222;2024-03-08T05:23:34;101565.06;;;5.71;100.00
32324;BME280;25666;44.350;9.222;2024-03-08T05:26:00;101565.06;;;5.71;100.00
32324;BME280;25666;44.350;9.222;2024-03-08T05:28:26;101563.03;;;5.76;100.00
32324;BME280;25666;44.350;9.222;2024-03-08T05:30:52;101564.06;;;5.85;100.00
32324;BME280;25666;44.350;9.222;2024-03-08T05:33:17;101570.84;;;5.93;100.00
32324;BME280;25666;44.350;9.222;2024-03-08T05:35:44;101568.41;;;5.91;100.00
32324;BME280;25666;44.350;9.222;2024-03-08T05:38:10;101571.16;;;5.91;100.00
32324;BME280;25666;44.350;9.222;2024-03-08T05:40:56;101568.03;;;5.98;100.00
32324;BME280;25666;44.350;9.222;2024-03-08T05:43:22;101559.13;;;6.01;100.00
32324;BME280;25666;44.350;9.222;2024-03-08T05:45:48;101562.09;;;6.05;100.00
32324;BME280;25666;44.350;9.222;2024-03-08T05:48:13;101560.44;;;5.85;100.00
32324;BME280;25666;44.350;9.222;2024-03-08T05:50:39;101554.69;;;5.81;100.00
32324;BME280;25666;44.350;9.222;2024-03-08T05:53:04;101562.94;;;5.86;100.00
32324;BME280;25666;44.350;9.222;2024-03-08T05:55:33;101552.09;;;5.90;100.00
32324;BME280;25666;44.350;9.222;2024-03-08T05:58:01;101553.59;;;5.82;100.00
32324;BME280;25666;44.350;9.222;2024-03-08T06:00:27;101554.38;;;5.83;100.00
32324;BME280;25666;44.350;9.222;2024-03-08T06:02:53;101555.81;;;5.99;100.00
32324;BME280;25666;44.350;9.222;2024-03-08T06:05:18;101565.09;;;5.89;100.00
32324;BME280;25666;44.350;9.222;2024-03-08T06:07:44;101565.97;;;5.85;100.00
32324;BME280;25666;44.350;9.222;2024-03-08T06:10:10;101568.72;;;5.85;100.00
32324;BME280;25666;44.350;9.222;2024-03-08T06:12:38;101572.56;;;5.89;100.00
32324;BME280;25666;44.350;9.222;2024-03-08T06:15:10;101571.94;;;5.92;100.00
32324;BME280;25666;44.350;9.222;2024-03-08T06:17:36;101575.75;;;5.77;100.00
32324;BME280;25666;44.350;9.222;2024-03-08T06:20:02;101578.03;;;5.94;100.00
32324;BME280;25666;44.350;9.222;2024-03-08T06:22:29;101576.63;;;6.61;100.00
32324;BME280;25666;44.350;9.222;2024-03-08T06:24:56;101578.25;;;7.35;100.00
32324;BME280;25666;44.350;9.222;2024-03-08T06:27:24;101579.63;;;7.74;100.00
32324;BME280;25666;44.350;9.222;2024-03-08T06:29:50;101571.81;;;8.12;100.00
32324;BME280;25666;44.350;9.222;2024-03-08T06:32:15;101567.34;;;8.24;100.00
32324;BME280;25666;44.350;9.222;2024-03-08T06:34:41;101573.81;;;8.55;100.00
32324;BME280;25666;44.350;9.222;2024-03-08T06:37:06;101580.13;;;8.70;100.00
32324;BME280;25666;44.350;9.222;2024-03-08T06:39:35;101574.09;;;9.07;100.00
32324;BME280;25666;44.350;9.222;2024-03-08T06:42:01;101573.88;;;10.08;100.00
32324;BME280;25666;44.350;9.222;2024-03-08T06:44:26;101576.78;;;9.86;100.00
32324;BME280;25666;44.350;9.222;2024-03-08T06:46:52;101575.78;;;9.82;100.00
32324;BME280;25666;44.350;9.222;2024-03-08T06:49:20;101572.22;;;9.98;100.00
32324;BME280;25666;44.350;9.222;2024-03-08T06:51:46;101574.34;;;9.93;100.00
32324;BME280;25666;44.350;9.222;2024-03-08T06:54:12;101582.84;;;9.88;100.00
32324;BME280;25666;44.350;9.222;2024-03-08T06:56:37;101583.56;;;9.45;100.00
32324;BME280;25666;44.350;9.222;2024-03-08T06:59:03;101587.53;;;9.13;100.00
32324;BME280;25666;44.350;9.222;2024-03-08T07:01:29;101581.41;;;8.94;100.00
32324;BME280;25666;44.350;9.222;2024-03-08T07:03:59;101578.22;;;8.79;100.00
32324;BME280;25666;44.350;9.222;2024-03-08T07:06:27;101583.16;;;8.59;100.00
32324;BME280;25666;44.350;9.222;2024-03-08T07:08:54;101588.72;;;8.37;100.00
32324;BME280;25666;44.350;9.222;2024-03-08T07:11:19;101582.22;;;8.42;100.00
32324;BME280;25666;44.350;9.222;2024-03-08T07:13:45;101586.69;;;8.51;100.00
32324;BME280;25666;44.350;9.222;2024-03-08T07:16:11;101589.78;;;8.50;100.00
32324;BME280;25666;44.350;9.222;2024-03-08T07:18:37;101591.28;;;8.56;100.00
32324;BME280;25666;44.350;9.222;2024-03-08T07:21:09;101588.03;;;8.54;100.00
32324;BME280;25666;44.350;9.222;2024-03-08T07:23:35;101592.09;;;8.56;100.00
32324;BME280;25666;44.350;9.222;2024-03-08T07:26:39;101592.78;;;8.62;100.00
32324;BME280;25666;44.350;9.222;2024-03-08T07:29:05;101591.81;;;8.58;100.00
32324;BME280;25666;44.350;9.222;2024-03-08T07:31:31;101592.69;;;8.67;100.00
32324;BME280;25666;44.350;9.222;2024-03-08T07:34:02;101601.88;;;8.76;100.00
32324;BME280;25666;44.350;9.222;2024-03-08T07:36:28;101599.28;;;8.80;100.00
32324;BME280;25666;44.350;9.222;2024-03-08T07:38:54;101600.78;;;8.86;100.00
32324;BME280;25666;44.350;9.222;2024-03-08T07:41:19;101602.41;;;8.87;100.00
32324;BME280;25666;44.350;9.222;2024-03-08T07:43:45;101600.97;;;8.89;100.00
32324;BME280;25666;44.350;9.222;2024-03-08T07:46:10;101597.72;;;8.96;100.00
32324;BME280;25666;44.350;9.222;2024-03-08T07:48:37;101595.66;;;9.01;100.00
32324;BME280;25666;44.350;9.222;2024-03-08T07:51:03;101600.28;;;9.14;100.00
32324;BME280;25666;44.350;9.222;2024-03-08T07:53:29;101603.28;;;9.27;100.00
32324;BME280;25666;44.350;9.222;2024-03-08T07:55:55;101600.88;;;9.42;100.00
32324;BME280;25666;44.350;9.222;2024-03-08T07:58:20;101593.41;;;9.51;100.00
32324;BME280;25666;44.350;9.222;2024-03-08T08:00:46;101588.19;;;9.58;100.00
32324;BME280;25666;44.350;9.222;2024-03-08T08:03:11;101592.94;;;9.66;100.00
32324;BME280;25666;44.350;9.222;2024-03-08T08:05:38;101592.13;;;9.75;100.00
32324;BME280;25666;44.350;9.222;2024-03-08T08:08:13;101592.00;;;9.80;100.00
32324;BME280;25666;44.350;9.222;2024-03-08T08:10:38;101587.75;;;9.91;100.00
32324;BME280;25666;44.350;9.222;2024-03-08T08:13:04;101590.53;;;9.99;100.00
32324;BME280;25666;44.350;9.222;2024-03-08T08:15:30;101581.69;;;10.06;100.00
32324;BME280;25666;44.350;9.222;2024-03-08T08:17:55;101585.66;;;10.13;100.00
32324;BME280;25666;44.350;9.222;2024-03-08T08:20:21;101586.00;;;10.20;100.00
32324;BME280;25666;44.350;9.222;2024-03-08T08:22:48;101581.56;;;10.28;100.00
32324;BME280;25666;44.350;9.222;2024-03-08T08:25:14;101581.72;;;10.40;100.00
32324;BME280;25666;44.350;9.222;2024-03-08T08:27:41;101580.91;;;10.48;100.00
32324;BME280;25666;44.350;9.222;2024-03-08T08:30:08;101580.56;;;10.67;100.00
32324;BME280;25666;44.350;9.222;2024-03-08T08:32:35;101582.63;;;10.87;100.00
32324;BME280;25666;44.350;9.222;2024-03-08T08:35:02;101581.53;;;11.17;100.00
32324;BME280;25666;44.350;9.222;2024-03-08T08:37:27;101569.41;;;11.51;100.00
32324;BME280;25666;44.350;9.222;2024-03-08T08:39:54;101576.69;;;11.73;100.00
32324;BME280;25666;44.350;9.222;2024-03-08T08:42:19;101574.25;;;11.92;100.00
32324;BME280;25666;44.350;9.222;2024-03-08T08:44:45;101574.34;;;12.04;100.00
32324;BME280;25666;44.350;9.222;2024-03-08T08:47:11;101567.66;;;12.17;100.00
32324;BME280;25666;44.350;9.222;2024-03-08T08:49:38;101566.22;;;12.32;100.00
32324;BME280;25666;44.350;9.222;2024-03-08T08:52:04;101562.53;;;12.40;100.00
32324;BME280;25666;44.350;9.222;2024-03-08T08:54:29;101570.38;;;12.47;100.00
32324;BME280;25666;44.350;9.222;2024-03-08T08:56:55;101565.84;;;12.54;100.00
32324;BME280;25666;44.350;9.222;2024-03-08T08:59:20;101566.94;;;12.62;100.00
32324;BME280;25666;44.350;9.222;2024-03-08T09:01:48;101565.75;;;12.63;100.00
32324;BME280;25666;44.350;9.222;2024-03-08T09:04:13;101570.19;;;12.64;100.00
32324;BME280;25666;44.350;9.222;2024-03-08T09:06:39;101569.16;;;12.68;100.00
32324;BME280;25666;44.350;9.222;2024-03-08T09:09:07;101565.41;;;12.64;100.00
32324;BME280;25666;44.350;9.222;2024-03-08T09:11:39;101561.34;;;12.62;100.00
32324;BME280;25666;44.350;9.222;2024-03-08T09:14:07;101560.31;;;12.78;100.00
32324;BME280;25666;44.350;9.222;2024-03-08T09:16:33;101560.69;;;12.77;100.00
32324;BME280;25666;44.350;9.222;2024-03-08T09:18:58;101562.78;;;12.80;100.00
32324;BME280;25666;44.350;9.222;2024-03-08T09:21:25;101566.88;;;12.95;100.00
32324;BME280;25666;44.350;9.222;2024-03-08T09:23:51;101566.59;;;13.08;100.00
32324;BME280;25666;44.350;9.222;2024-03-08T09:26:17;101561.78;;;12.97;100.00
32324;BME280;25666;44.350;9.222;2024-03-08T09:28:42;101565.72;;;12.96;100.00
32324;BME280;25666;44.350;9.222;2024-03-08T09:31:08;101561.16;;;12.91;100.00
32324;BME280;25666;44.350;9.222;2024-03-08T09:33:34;101560.84;;;13.05;100.00
32324;BME280;25666;44.350;9.222;2024-03-08T09:36:00;101560.84;;;13.05;100.00
32324;BME280;25666;44.350;9.222;2024-03-08T09:38:25;101566.06;;;12.94;100.00
32324;BME280;25666;44.350;9.222;2024-03-08T09:40:52;101568.88;;;13.06;100.00
32324;BME280;25666;44.350;9.222;2024-03-08T09:43:18;101575.69;;;13.17;100.00
32324;BME280;25666;44.350;9.222;2024-03-08T09:45:45;101570.34;;;13.24;100.00
32324;BME280;25666;44.350;9.222;2024-03-08T09:48:12;101571.97;;;13.37;100.00
32324;BME280;25666;44.350;9.222;2024-03-08T09:50:39;101574.31;;;13.48;100.00
32324;BME280;25666;44.350;9.222;2024-03-08T09:53:04;101570.00;;;13.62;100.00
32324;BME280;25666;44.350;9.222;2024-03-08T09:55:37;101570.22;;;13.57;100.00
32324;BME280;25666;44.350;9.222;2024-03-08T09:58:06;101575.13;;;13.60;100.00
32324;BME280;25666;44.350;9.222;2024-03-08T10:01:02;101581.78;;;13.44;100.00
32324;BME280;25666;44.350;9.222;2024-03-08T10:03:30;101574.66;;;13.46;100.00
32324;BME280;25666;44.350;9.222;2024-03-08T10:05:57;101589.09;;;13.24;100.00
32324;BME280;25666;44.350;9.222;2024-03-08T10:08:29;101581.06;;;13.34;100.00
32324;BME280;25666;44.350;9.222;2024-03-08T10:10:55;101582.69;;;13.35;100.00
32324;BME280;25666;44.350;9.222;2024-03-08T10:13:25;101581.41;;;13.21;100.00
32324;BME280;25666;44.350;9.222;2024-03-08T10:15:52;101570.09;;;13.17;100.00
32324;BME280;25666;44.350;9.222;2024-03-08T10:18:18;101572.06;;;13.17;100.00
32324;BME280;25666;44.350;9.222;2024-03-08T10:20:43;101565.03;;;12.99;100.00
32324;BME280;25666;44.350;9.222;2024-03-08T10:23:09;101565.03;;;12.99;100.00
32324;BME280;25666;44.350;9.222;2024-03-08T10:25:35;101560.28;;;12.99;100.00
32324;BME280;25666;44.350;9.222;2024-03-08T10:28:05;101566.44;;;13.05;100.00
32324;BME280;25666;44.350;9.222;2024-03-08T10:30:31;101562.69;;;13.01;100.00
32324;BME280;25666;44.350;9.222;2024-03-08T10:32:57;101570.94;;;13.18;100.00
32324;BME280;25666;44.350;9.222;2024-03-08T10:35:24;101574.53;;;13.18;100.00
32324;BME280;25666;44.350;9.222;2024-03-08T10:37:50;101575.25;;;13.27;100.00
32324;BME280;25666;44.350;9.222;2024-03-08T10:40:28;101569.97;;;13.38;100.00
32324;BME280;25666;44.350;9.222;2024-03-08T10:42:55;101569.53;;;13.24;100.00
32324;BME280;25666;44.350;9.222;2024-03-08T10:45:40;101564.09;;;13.07;100.00
32324;BME280;25666;44.350;9.222;2024-03-08T10:48:28;101564.84;;;13.16;100.00
32324;BME280;25666;44.350;9.222;2024-03-08T10:50:57;101559.38;;;13.19;100.00
32324;BME280;25666;44.350;9.222;2024-03-08T10:53:27;101553.44;;;13.09;100.00
32324;BME280;25666;44.350;9.222;2024-03-08T10:55:56;101548.03;;;13.04;100.00
32324;BME280;25666;44.350;9.222;2024-03-08T10:58:24;101555.66;;;13.15;100.00
32324;BME280;25666;44.350;9.222;2024-03-08T11:00:53;101539.22;;;13.14;100.00
32324;BME280;25666;44.350;9.222;2024-03-08T11:06:19;101545.88;;;13.33;100.00
32324;BME280;25666;44.350;9.222;2024-03-08T11:08:48;101537.81;;;13.44;100.00
32324;BME280;25666;44.350;9.222;2024-03-08T11:13:57;101543.88;;;13.58;100.00
32324;BME280;25666;44.350;9.222;2024-03-08T11:18:58;101540.63;;;13.68;100.00
32324;BME280;25666;44.350;9.222;2024-03-08T11:21:30;101531.28;;;13.64;100.00
32324;BME280;25666;44.350;9.222;2024-03-08T11:24:07;101539.09;;;13.71;100.00
32324;BME280;25666;44.350;9.222;2024-03-08T11:26:33;101535.81;;;13.81;100.00
32324;BME280;25666;44.350;9.222;2024-03-08T11:32:07;101534.50;;;13.90;100.00
32324;BME280;25666;44.350;9.222;2024-03-08T11:34:34;101530.09;;;13.77;100.00
32324;BME280;25666;44.350;9.222;2024-03-08T11:37:00;101530.69;;;13.83;100.00
32324;BME280;25666;44.350;9.222;2024-03-08T11:39:26;101538.16;;;13.67;100.00
32324;BME280;25666;44.350;9.222;2024-03-08T11:41:54;101529.44;;;13.68;100.00
32324;BME280;25666;44.350;9.222;2024-03-08T11:44:20;101537.22;;;13.75;100.00
32324;BME280;25666;44.350;9.222;2024-03-08T11:46:46;101533.84;;;13.69;100.00
32324;BME280;25666;44.350;9.222;2024-03-08T11:49:14;101527.34;;;13.65;100.00
32324;BME280;25666;44.350;9.222;2024-03-08T11:51:41;101528.72;;;13.47;100.00
32324;BME280;25666;44.350;9.222;2024-03-08T11:54:11;101517.31;;;13.64;100.00
32324;BME280;25666;44.350;9.222;2024-03-08T11:56:40;101518.53;;;13.79;100.00
32324;BME280;25666;44.350;9.222;2024-03-08T11:59:11;101514.72;;;13.71;100.00
32324;BME280;25666;44.350;9.222;2024-03-08T12:01:38;101508.63;;;13.81;100.00
32324;BME280;25666;44.350;9.222;2024-03-08T12:04:04;101511.91;;;13.83;100.00
32324;BME280;25666;44.350;9.222;2024-03-08T12:06:40;101504.59;;;14.07;100.00
32324;BME280;25666;44.350;9.222;2024-03-08T12:09:12;101495.53;;;14.25;100.00
32324;BME280;25666;44.350;9.222;2024-03-08T12:11:38;101483.97;;;14.27;100.00
32324;BME280;25666;44.350;9.222;2024-03-08T12:14:04;101486.50;;;14.32;100.00
32324;BME280;25666;44.350;9.222;2024-03-08T12:16:32;101480.13;;;14.31;100.00
32324;BME280;25666;44.350;9.222;2024-03-08T12:18:57;101476.56;;;14.46;100.00
32324;BME280;25666;44.350;9.222;2024-03-08T12:21:26;101465.44;;;14.22;100.00
32324;BME280;25666;44.350;9.222;2024-03-08T12:24:12;101452.53;;;14.45;100.00
32324;BME280;25666;44.350;9.222;2024-03-08T12:26:42;101440.91;;;14.31;100.00
32324;BME280;25666;44.350;9.222;2024-03-08T12:29:27;101439.13;;;14.39;100.00
32324;BME280;25666;44.350;9.222;2024-03-08T12:31:58;101430.50;;;14.32;100.00
32324;BME280;25666;44.350;9.222;2024-03-08T12:34:26;101437.19;;;14.27;100.00
32324;BME280;25666;44.350;9.222;2024-03-08T12:36:58;101425.78;;;14.20;100.00
32324;BME280;25666;44.350;9.222;2024-03-08T12:39:24;101424.38;;;13.99;100.00
32324;BME280;25666;44.350;9.222;2024-03-08T12:41:55;101418.72;;;14.11;100.00
32324;BME280;25666;44.350;9.222;2024-03-08T12:44:22;101424.25;;;14.23;100.00
32324;BME280;25666;44.350;9.222;2024-03-08T12:46:48;101419.66;;;14.15;100.00
32324;BME280;25666;44.350;9.222;2024-03-08T12:49:14;101419.13;;;14.25;100.00
32324;BME280;25666;44.350;9.222;2024-03-08T12:51:46;101419.19;;;14.28;100.00
32324;BME280;25666;44.350;9.222;2024-03-08T12:54:16;101414.25;;;14.22;100.00
32324;BME280;25666;44.350;9.222;2024-03-08T12:56:42;101416.63;;;14.35;100.00